Latest Weather Observations for Wilcannia Airport

IDN60801

Issued at 5:34 pm EDT Saturday 28 February 2015 (issued every 30 minutes, with the page automatically refreshed every 10 minutes)

About weather observations | Map of weather stations | Latest weather observations for NSW | Other Formats
Station Details ID: 046012 Name: WILCANNIA AERODROME AWS Lat: -31.52 Lon: 143.38 Height: 94.3 m
Data from the previous 72 hours. | See also: Recent months for locations in New South Wales
Date/Time
EDT
Temp
°C
App
Temp
°C
Dew
Point
Rel
Hum
%
Delta-T
°C
Wind Press
QNH
hPa
Press
MSL
hPa
Rain
since 9 am
mm
Dir
 
Spd
km/h
Gust
km/h
Spd
kts
Gust
kts
28/05:30pm 39.0 35.5 5.6 13 18.5 SW 13 22 7 12 1003.2 1002.6 0.0
28/05:00pm 38.9 36.6 5.5 13 18.5 NE 7 19 4 10 1003.3 1002.7 0.0
28/04:30pm 38.8 34.5 5.4 13 18.4 SSW 17 26 9 14 1003.5 1002.9 0.0
28/04:00pm 38.2 34.2 5.0 13 18.2 SSW 15 22 8 12 1003.8 1003.2 0.0
28/03:30pm 38.4 34.8 5.1 13 18.2 NE 13 22 7 12 1004.0 1003.4 0.0
28/03:00pm 38.4 36.0 5.1 13 18.3 SE 7 11 4 6 1004.4 1003.8 0.0
28/02:30pm 38.6 35.4 5.3 13 18.3 N 11 20 6 11 1004.9 1004.3 0.0
28/02:00pm 37.1 33.9 5.2 14 17.4 WNW 11 20 6 11 1005.3 1004.7 0.0
28/01:30pm 37.5 34.4 5.5 14 17.6 NNW 11 17 6 9 1005.6 1005.0 0.0
28/01:00pm 37.1 34.1 6.2 15 17.1 WSW 11 19 6 10 1006.1 1005.5 0.0
28/12:30pm 36.8 33.4 5.9 15 17.0 NNW 13 20 7 11 1006.5 1005.9 0.0
28/12:00pm 35.8 32.8 6.1 16 16.3 SE 11 20 6 11 1006.9 1006.3 0.0
28/11:30am 35.9 32.6 6.2 16 16.3 NE 13 20 7 11 1007.0 1006.4 0.0
28/11:00am 35.0 31.9 5.4 16 16.0 NNE 11 17 6 9 1007.1 1006.5 0.0
28/10:30am 33.8 30.7 5.4 17 15.3 NE 11 17 6 9 1007.2 1006.6 0.0
28/10:00am 31.9 27.8 6.2 20 13.9 NE 17 22 9 12 1007.2 1006.6 0.0
28/09:30am 30.8 27.4 6.0 21 13.2 ENE 13 19 7 10 1007.2 1006.6 0.0
28/09:00am 29.2 26.5 7.2 25 11.9 ENE 11 15 6 8 1006.8 1006.2 0.0
28/08:30am 27.5 25.9 7.9 29 10.6 E 6 9 3 5 1006.8 1006.2 0.0
28/08:00am 24.4 22.4 8.8 37 8.5 ENE 9 9 5 5 1006.5 1005.9 0.0
28/07:30am 22.2 19.7 8.3 41 7.4 ENE 11 11 6 6 1006.1 1005.5 0.0
28/07:00am 21.7 19.0 7.5 40 7.4 NE 11 13 6 7 1006.0 1005.4 0.0
28/06:30am 22.2 19.6 7.6 39 7.6 ENE 11 13 6 7 1005.5 1004.9 0.0
28/06:00am 23.2 20.1 7.3 36 8.3 NE 13 13 7 7 1005.1 1004.5 0.0
28/05:30am 24.2 21.3 8.2 36 8.5 NE 13 15 7 8 1005.2 1004.6 0.0
28/05:00am 23.2 22.5 8.5 39 7.9 SW 2 7 1 4 1005.3 1004.7 0.0
28/04:30am 23.9 22.4 8.3 37 8.3 SW 6 7 3 4 1005.5 1004.9 0.0
28/04:00am 24.0 22.3 8.4 37 8.4 WSW 7 9 4 5 1006.1 1005.5 0.0
28/03:30am 23.8 21.6 7.8 36 8.5 WSW 9 9 5 5 1006.0 1005.4 0.0
28/03:00am 23.8 21.5 7.4 35 8.6 SW 9 11 5 6 1006.1 1005.5 0.0
28/02:30am 24.8 21.7 7.4 33 9.2 SW 13 15 7 8 1006.5 1005.9 0.0
28/02:00am 24.9 21.8 7.1 32 9.4 SSE 13 13 7 7 1006.5 1005.9 0.0
28/01:30am 24.0 21.9 6.7 33 9.0 SSE 7 9 4 5 1006.9 1006.3 0.0
28/01:00am 25.4 23.5 7.5 32 9.5 S 7 7 4 4 1007.0 1006.4 0.0
28/12:30am 25.5 23.5 7.1 31 9.7 S 7 7 4 4 1007.1 1006.5 0.0
28/12:00am 26.4 24.7 7.4 30 10.2 SW 6 7 3 4 1007.3 1006.7 0.0
 
Date/Time
EDT
Temp
°C
App
Temp
°C
Dew
Point
Rel
Hum
%
Delta-T
°C
Wind Press
QNH
hPa
Press
MSL
hPa
Rain
since 9 am
mm
Dir
 
Spd
km/h
Gust
km/h
Spd
kts
Gust
kts
27/11:30pm 27.3 25.1 7.7 29 10.6 SSE 9 11 5 6 1007.3 1006.7 0.0
27/11:00pm 27.1 24.7 7.0 28 10.7 SSE 9 9 5 5 1007.2 1006.6 0.0
27/10:30pm 27.8 25.0 7.1 27 11.1 SSE 11 11 6 6 1007.5 1006.9 0.0
27/10:00pm 29.0 26.4 7.6 26 11.6 S 11 13 6 7 1007.5 1006.9 0.0
27/09:30pm 29.3 26.6 7.2 25 11.9 S 11 13 6 7 1007.2 1006.6 0.0
27/09:00pm 30.3 27.1 6.9 23 12.7 S 13 15 7 8 1006.8 1006.2 0.0
27/08:30pm 31.4 28.1 6.5 21 13.4 S 13 22 7 12 1006.4 1005.8 0.0
27/08:00pm 32.3 29.4 6.5 20 14.0 S 11 13 6 7 1006.0 1005.4 0.0
27/07:30pm 33.1 30.0 7.1 20 14.3 S 13 20 7 11 1005.9 1005.3 0.0
27/07:00pm 34.1 30.6 7.2 19 14.9 SSW 15 20 8 11 1005.6 1005.0 0.0
27/06:30pm 34.4 31.2 6.7 18 15.2 S 13 20 7 11 1005.6 1005.0 0.0
27/06:00pm 35.2 30.6 5.6 16 16.1 SSE 19 32 10 17 1005.5 1004.9 0.0
27/05:30pm 35.5 31.9 6.7 17 15.9 S 15 26 8 14 1005.6 1005.0 0.0
27/05:00pm 34.9 31.2 6.2 17 15.7 SW 15 24 8 13 1005.6 1005.0 0.0
27/04:30pm 35.9 32.9 6.2 16 16.3 S 11 20 6 11 1005.7 1005.1 0.0
27/04:00pm 35.9 32.0 5.2 15 16.7 SSW 15 26 8 14 1006.2 1005.6 0.0
27/03:30pm 35.3 30.9 4.8 15 16.4 SSE 17 28 9 15 1006.5 1005.9 0.0
27/03:00pm 35.7 32.7 6.0 16 16.3 SE 11 20 6 11 1006.9 1006.3 0.0
27/02:30pm 35.1 31.6 5.5 16 16.0 SE 13 22 7 12 1007.4 1006.8 0.0
27/02:00pm 34.8 30.9 5.3 16 15.9 SSE 15 22 8 12 1007.6 1007.0 0.0
27/01:30pm 34.4 31.0 5.8 17 15.5 SSE 13 24 7 13 1007.9 1007.3 0.0
27/01:00pm 33.5 30.1 7.5 20 14.4 SSE 15 28 8 15 1008.5 1007.9 0.0
27/12:30pm 34.0 31.6 8.6 21 14.4 ESE 11 19 6 10 1009.1 1008.5 0.0
27/12:00pm 33.1 29.8 7.9 21 14.1 SE 15 24 8 13 1009.7 1009.1 0.0
27/11:30am 32.6 29.1 7.4 21 13.9 ESE 15 20 8 11 1009.8 1009.3 0.0
27/11:00am 31.8 29.5 7.5 22 13.4 SE 9 17 5 9 1010.1 1009.6 0.0
27/10:30am 30.7 28.2 8.4 25 12.4 SE 11 13 6 7 1010.0 1009.5 0.0
27/10:00am 28.5 25.7 8.7 29 10.9 SE 13 17 7 9 1010.1 1009.6 0.0
27/09:30am 26.9 23.8 8.8 32 9.9 SSE 15 19 8 10 1009.9 1009.4 0.0
27/09:00am 25.5 21.8 8.1 33 9.4 S 17 20 9 11 1009.8 1009.3 0.0
27/08:30am 23.4 20.9 8.3 38 8.0 SSW 11 15 6 8 1009.4 1008.8 0.0
27/08:00am 19.8 17.5 7.5 45 6.3 SSW 9 9 5 5 1009.1 1008.5 0.0
27/07:30am 18.0 14.7 6.2 46 5.8 SW 13 17 7 9 1009.0 1008.4 0.0
27/07:00am 17.6 14.6 5.9 46 5.7 SW 11 11 6 6 1008.4 1007.8 0.0
27/06:30am 17.9 15.2 5.8 45 5.9 SW 9 11 5 6 1008.1 1007.5 0.0
27/06:00am 18.1 14.6 5.3 43 6.2 SW 13 15 7 8 1007.9 1007.3 0.0
27/05:30am 18.1 14.9 5.3 43 6.2 SW 11 11 6 6 1007.6 1007.0 0.0
27/05:00am 18.4 15.2 4.9 41 6.5 SSW 11 15 6 8 1007.5 1006.9 0.0
27/04:30am 18.4 15.2 4.9 41 6.5 S 11 13 6 7 1007.3 1006.7 0.0
27/04:00am 19.0 16.2 5.1 40 6.8 SW 9 9 5 5 1007.4 1006.8 0.0
27/03:30am 19.5 16.6 4.4 37 7.3 SW 9 11 5 6 1007.6 1007.0 0.0
27/03:00am 19.6 16.2 4.1 36 7.5 SSW 11 13 6 7 1007.7 1007.1 0.0
27/02:30am 20.6 17.2 3.8 33 8.1 SW 11 13 6 7 1008.0 1007.4 0.0
27/02:00am 21.8 18.5 4.8 33 8.4 SSW 11 13 6 7 1008.1 1007.5 0.0
27/01:30am 22.7 19.0 4.7 31 8.9 SSE 13 13 7 7 1008.1 1007.5 0.0
27/01:00am 23.1 20.1 4.1 29 9.4 S 9 13 5 7 1008.4 1007.8 0.0
27/12:30am 24.9 21.6 4.6 27 10.2 S 11 13 6 7 1008.6 1008.0 0.0
27/12:00am 26.6 22.9 4.4 24 11.3 S 13 19 7 10 1008.5 1007.9 0.0
 
Date/Time
EDT
Temp
°C
App
Temp
°C
Dew
Point
Rel
Hum
%
Delta-T
°C
Wind Press
QNH
hPa
Press
MSL
hPa
Rain
since 9 am
mm
Dir
 
Spd
km/h
Gust
km/h
Spd
kts
Gust
kts
26/11:30pm 27.6 23.5 4.6 23 11.8 S 15 20 8 11 1008.5 1007.9 0.0
26/11:00pm 26.9 23.2 4.6 24 11.4 S 13 17 7 9 1008.4 1007.8 0.0
26/10:30pm 25.5 21.5 2.9 23 11.1 SSW 13 15 7 8 1008.3 1007.7 0.0
26/10:00pm 26.6 22.7 3.2 22 11.6 S 13 15 7 8 1008.1 1007.5 0.0
26/09:30pm 27.6 23.6 2.6 20 12.3 S 13 15 7 8 1007.8 1007.2 0.0
26/09:00pm 29.2 25.0 1.7 17 13.5 S 13 15 7 8 1007.5 1006.9 0.0
26/08:30pm 30.6 25.9 1.0 15 14.5 S 15 20 8 11 1007.2 1006.6 0.0
26/08:00pm 31.7 26.6 1.0 14 15.2 S 17 24 9 13 1006.9 1006.3 0.0
26/07:30pm 32.9 27.3 0.9 13 15.9 S 20 28 11 15 1006.6 1006.0 0.0
26/07:00pm 33.8 27.5 1.6 13 16.3 SSW 24 35 13 19 1006.3 1005.7 0.0
26/06:30pm 34.6 28.8 2.2 13 16.6 S 22 30 12 16 1006.0 1005.4 0.0
26/06:00pm 34.7 28.1 2.3 13 16.7 SSW 26 43 14 23 1006.0 1005.4 0.0
26/05:30pm 35.1 28.4 1.5 12 17.1 SSW 26 39 14 21 1006.1 1005.5 0.0
26/05:00pm 34.4 28.0 0.9 12 16.8 S 24 39 13 21 1006.2 1005.6 0.0
26/04:30pm 34.5 27.7 1.0 12 16.8 S 26 37 14 20 1006.4 1005.8 0.0
26/04:00pm 34.5 28.1 1.0 12 16.9 S 24 39 13 21 1006.8 1006.2 0.0
26/03:30pm 34.4 28.2 2.0 13 16.5 S 24 35 13 19 1007.1 1006.5 0.0
26/03:00pm 34.0 27.5 0.6 12 16.7 S 24 39 13 21 1007.6 1007.0 0.0
26/02:30pm 33.8 27.0 0.5 12 16.5 SSW 26 37 14 20 1007.9 1007.3 0.0
26/02:00pm 33.2 26.7 0.0 12 16.3 SW 24 41 13 22 1008.4 1007.8 0.0
26/01:30pm 33.0 27.4 0.9 13 15.9 SSW 20 35 11 19 1008.7 1008.1 0.0
26/01:00pm 32.1 26.5 1.3 14 15.3 SSW 20 37 11 20 1009.0 1008.4 0.0
26/12:30pm 31.6 26.1 1.8 15 14.9 SSW 20 35 11 19 1009.4 1008.8 0.0
26/12:00pm 31.1 25.0 0.5 14 14.9 SSW 22 33 12 18 1009.7 1009.1 0.0
26/11:30am 30.0 25.8 1.5 16 14.0 SSW 13 20 7 11 1009.6 1009.0 0.0
26/11:00am 29.3 25.0 3.3 19 13.2 S 15 20 8 11 1010.0 1009.5 0.0
26/10:30am 28.2 23.6 3.8 21 12.3 S 17 24 9 13 1010.5 1010.0 0.0
26/10:00am 26.2 21.5 3.4 23 11.3 S 17 24 9 13 1010.4 1009.9 0.0
26/09:30am 23.6 19.7 3.5 27 9.8 SSW 13 17 7 9 1010.3 1009.8 0.0
26/09:00am 22.4 18.5 3.5 29 9.2 SSW 13 17 7 9 1010.2 1009.7 0.0
26/08:30am 20.2 16.1 2.5 31 8.3 SW 13 19 7 10 1010.0 1009.5 0.0
26/08:00am 16.8 13.6 3.1 40 6.3 WSW 9 11 5 6 1009.5 1008.9 0.0
26/07:30am 15.4 11.4 2.6 42 5.8 WSW 13 15 7 8 1009.3 1008.7 0.0
26/07:00am 15.6 11.1 2.4 41 5.9 WSW 15 17 8 9 1009.3 1008.7 0.0
26/06:30am 15.9 12.2 2.3 40 6.1 SW 11 13 6 7 1008.9 1008.3 0.0
26/06:00am 15.8 12.0 1.9 39 6.2 SSW 11 13 6 7 1008.7 1008.1 0.0
26/05:30am 16.2 12.4 1.9 38 6.4 SW 11 11 6 6 1008.6 1008.0 0.0
26/05:00am 16.4 12.5 1.3 36 6.7 SW 11 13 6 7 1008.5 1007.9 0.0
26/04:30am 16.9 13.0 1.4 35 6.9 SW 11 13 6 7 1008.6 1008.0 0.0
26/04:00am 17.4 13.2 1.4 34 7.2 SW 13 15 7 8 1008.7 1008.1 0.0
26/03:30am 17.4 13.2 1.4 34 7.1 SW 13 15 7 8 1008.9 1008.3 0.0
26/03:00am 17.3 13.0 1.3 34 7.1 SW 13 15 7 8 1009.1 1008.5 0.0
26/02:30am 17.2 12.9 0.8 33 7.2 WSW 13 15 7 8 1009.4 1008.8 0.0
26/02:00am 17.9 13.2 1.0 32 7.5 SW 15 17 8 9 1009.3 1008.7 0.0
26/01:30am 18.0 13.6 0.6 31 7.7 WSW 13 15 7 8 1009.6 1009.0 0.0
26/01:00am 18.6 14.6 0.7 30 8.0 SW 11 13 6 7 1010.0 1009.5 0.0
26/12:30am 19.3 15.3 0.8 29 8.3 SSW 11 13 6 7 1010.3 1009.8 0.0
26/12:00am 19.4 15.1 0.9 29 8.3 SSW 13 13 7 7 1010.3 1009.8 0.0
 
Date/Time
EDT
Temp
°C
App
Temp
°C
Dew
Point
Rel
Hum
%
Delta-T
°C
Wind Press
QNH
hPa
Press
MSL
hPa
Rain
since 9 am
mm
Dir
 
Spd
km/h
Gust
km/h
Spd
kts
Gust
kts
25/11:30pm 20.2 15.8 0.6 27 8.8 SW 13 15 7 8 1010.7 1010.2 0.0
25/11:00pm 21.0 16.6 0.2 25 9.4 SW 13 17 7 9 1010.7 1010.2 0.0
25/10:30pm 21.6 16.9 0.8 25 9.5 WSW 15 17 8 9 1010.5 1010.0 0.0
25/10:00pm 22.6 18.2 0.4 23 10.2 SSW 13 15 7 8 1010.1 1009.6 0.0
25/09:30pm 22.9 19.2 0.1 22 10.4 SSW 9 11 5 6 1009.8 1009.3 0.0
25/09:00pm 24.6 20.5 -0.5 19 11.5 SSW 11 13 6 7 1009.4 1008.8 0.0
25/08:30pm 26.5 21.9 -1.3 16 12.7 SSW 13 15 7 8 1009.1 1008.5 0.0
25/08:00pm 29.3 23.6 -0.9 14 14.2 SSW 19 28 10 15 1008.8 1008.2 0.0
25/07:30pm 30.6 24.7 -0.9 13 14.9 SSW 20 28 11 15 1008.8 1008.2 0.0
25/07:00pm 31.6 25.0 -0.1 13 15.4 SSW 24 33 13 18 1008.7 1008.1 0.0
25/06:30pm 32.2 26.1 0.3 13 15.6 SSW 22 32 12 17 1008.7 1008.1 0.0
25/06:00pm 32.3 25.7 -0.7 12 15.9 SSW 24 33 13 18 1008.6 1008.0 0.0

Other Formats:

Comma delimited format used in spreadsheet applications
http://www.bom.gov.au/fwo/IDN60801/IDN60801.95695.axf

JavaScript Object Notation format (JSON) in row-major order
http://www.bom.gov.au/fwo/IDN60801/IDN60801.95695.json